Aeroporto :
LOGIN :

Iscrizione | Disclaimer

   EN    FR    IT 

 










Sommario :    VFR   VFR Marginale   IFR   IFR Intensivo   IFR Molto Intensivo
Visibilità : 
Base nubi : 
>= 8 km
>= 3000ft
5 / 8 km
1000 / 3000 ft
1500m / 5 km
500 / 1000 ft
800 / 1500m
200 / 500 ft
< 800m
< 200 ft
Simboli :   Temporali  Nebbia  Neve Forte  Precipitazioni Forti  Vento > 20 kt
SIGMETs :   Varie  Temporali  Ghiacco  Turbolenza  Onda orograficha  Ceneri Vulcaniche






- Altitudine del aeroporto : 375 ft
- Codice IATA : MST


EHBK - Maastricht Aachen

ULTIMO METAR :
  • 220025Z AUTO 21007KT 9999 FEW047 04/03 Q1016

METARs OBSOLETI :
  • 212355Z AUTO 21007KT 9999 FEW048 05/03 Q1016
  • 212325Z AUTO 21007KT 9999 SCT033 SCT049 06/04 Q1016
  • 212255Z AUTO 23007KT 200V260 9999 BKN038 BKN044 OVC048 06/05 Q1016
  • 212225Z AUTO 24005KT 200V300 9999 NSC 06/04 Q1015
  • 212155Z AUTO 25004KT 200V280 9999 NSC 07/05 Q1015

TAF TAF EHBK
Valido dal 22 a 00 ore il 23 a 06 ore UTC


212307Z 2200/2306 24009KT 9999 FEW045
BECMG 2207/2210 25015G25KT
BECMG 2213/2216 25010KT
PROB30
TEMPO 2217/2223 7000 -SHRA BKN015 FEW018CB
PROB40 2301/2306 6000 BKN008
PROB30
TEMPO 2302/2306 3000 BR BKN003
BECMG 2303/2306 22005KT



MetMap, La meteo Aeronautica in un colpo d'occhio ! - Copyright ORBIFLY Dicembre 2007 - Disclaimer

ORBIFLY MET'MAP TEAM :

Programmazione e sviluppo : Alexandra Zaïnal
Concezione : Baudouin d'Aumeries
Aiuto per la programmazione : Marc-Olivier Méhu
Supporto tecnico e logistico : Manuel Goepfert
Aiuto per la traduzione : Arnaldo La Scala

Contatto : metmap@orbifly.com




FONTI E CREDITI :

   NOAA